Time;durP1;ratioP1;P1;durP2;ratioP2;P2;SDS_P1;SDS_P2;PMS_P1;PMS_P2;Temp;Humidity;BMP_temperature;BMP_pressure;BME280_temperature;BME280_humidity;BME280_pressure;Samples;Min_cycle;Max_cycle;Signal;HPM_P1;HPM_P2
2024/04/10 00:00:04;;;;;;;5.97;3.80;;;;;;;;;;771118;180;815437;-65
2024/04/10 00:02:30;;;;;;;6.13;4.30;;;;;;;;;;777008;180;920080;-66
2024/04/10 00:04:56;;;;;;;6.80;4.40;;;;;;;;;;773104;180;815902;-63
2024/04/10 00:07:21;;;;;;;5.17;3.87;;;;;;;;;;773033;180;911005;-65
2024/04/10 00:09:47;;;;;;;6.70;3.80;;;;;;;;;;776045;180;911069;-64
2024/04/10 00:12:13;;;;;;;8.03;3.50;;;;;;;;;;767705;181;925263;-65
2024/04/10 00:14:39;;;;;;;6.03;5.43;;;;;;;;;;770756;180;917228;-65
2024/04/10 00:17:05;;;;;;;6.77;4.70;;;;;;;;;;773838;180;921272;-64
2024/04/10 00:19:31;;;;;;;8.43;3.67;;;;;;;;;;770835;180;917129;-65
2024/04/10 00:21:56;;;;;;;7.83;3.60;;;;;;;;;;770408;180;816698;-66
2024/04/10 00:24:22;;;;;;;8.10;4.30;;;;;;;;;;772936;180;900831;-65
2024/04/10 00:26:49;;;;;;;6.97;4.60;;;;;;;;;;776815;180;898277;-64
2024/04/10 00:29:15;;;;;;;6.80;4.70;;;;;;;;;;774234;179;919429;-65
2024/04/10 00:31:40;;;;;;;11.17;5.63;;;;;;;;;;775013;180;919348;-65
2024/04/10 00:34:06;;;;;;;12.57;5.57;;;;;;;;;;782928;180;717526;-64
2024/04/10 00:36:32;;;;;;;14.53;5.37;;;;;;;;;;775412;180;817641;-63
2024/04/10 00:38:58;;;;;;;8.00;5.30;;;;;;;;;;777382;180;707247;-65
2024/04/10 00:41:24;;;;;;;7.43;5.13;;;;;;;;;;780387;180;710416;-64
2024/04/10 00:43:50;;;;;;;12.23;6.30;;;;;;;;;;771953;180;872520;-64
2024/04/10 00:46:18;;;;;;;9.13;6.17;;;;;;;;;;774698;180;705959;-64
2024/04/10 00:48:44;;;;;;;7.80;6.03;;;;;;;;;;764864;180;875078;-64
2024/04/10 00:51:10;;;;;;;7.83;6.17;;;;;;;;;;772135;180;788288;-63
2024/04/10 00:53:36;;;;;;;6.67;5.70;;;;;;;;;;773887;180;850966;-63
2024/04/10 00:56:03;;;;;;;9.10;6.13;;;;;;;;;;774405;180;812737;-64
2024/04/10 00:58:28;;;;;;;15.13;6.67;;;;;;;;;;777372;180;830230;-65
2024/04/10 01:00:54;;;;;;;12.23;6.80;;;;;;;;;;770032;180;984496;-65
2024/04/10 01:03:20;;;;;;;12.30;6.33;;;;;;;;;;773854;180;850340;-65
2024/04/10 01:05:45;;;;;;;18.47;5.23;;;;;;;;;;780048;180;657096;-65
2024/04/10 01:08:11;;;;;;;8.83;6.87;;;;;;;;;;771044;180;821885;-64
2024/04/10 01:10:37;;;;;;;7.23;5.80;;;;;;;;;;770747;179;919483;-65
2024/04/10 01:13:03;;;;;;;9.47;5.73;;;;;;;;;;773293;180;910302;-66
2024/04/10 01:15:29;;;;;;;9.13;5.03;;;;;;;;;;763653;183;951516;-65
2024/04/10 01:17:54;;;;;;;10.40;5.70;;;;;;;;;;773508;181;824581;-63
2024/04/10 01:20:20;;;;;;;8.40;5.77;;;;;;;;;;767476;181;918998;-64
2024/04/10 01:22:46;;;;;;;9.70;5.97;;;;;;;;;;772182;180;835528;-63
2024/04/10 01:25:12;;;;;;;11.90;6.30;;;;;;;;;;772031;180;918996;-64
2024/04/10 01:27:38;;;;;;;6.43;5.10;;;;;;;;;;765353;181;918491;-64
2024/04/10 01:30:04;;;;;;;7.10;4.87;;;;;;;;;;776377;180;887919;-65
2024/04/10 01:32:30;;;;;;;13.33;5.20;;;;;;;;;;770864;181;917526;-64
2024/04/10 01:34:56;;;;;;;7.80;5.30;;;;;;;;;;773279;180;822541;-63
2024/04/10 01:37:22;;;;;;;13.33;6.50;;;;;;;;;;773705;180;838621;-64
2024/04/10 01:39:47;;;;;;;7.40;5.20;;;;;;;;;;775584;178;814558;-65
2024/04/10 01:42:13;;;;;;;7.13;4.20;;;;;;;;;;775202;180;878680;-64
2024/04/10 01:44:39;;;;;;;5.83;4.63;;;;;;;;;;775819;180;818181;-65
2024/04/10 01:47:05;;;;;;;6.43;5.00;;;;;;;;;;771799;180;793439;-64
2024/04/10 01:49:31;;;;;;;7.47;5.27;;;;;;;;;;775162;180;837128;-64
2024/04/10 01:51:57;;;;;;;6.90;5.10;;;;;;;;;;773248;180;913035;-65
2024/04/10 01:54:23;;;;;;;7.03;5.17;;;;;;;;;;779293;180;711935;-64
2024/04/10 01:56:48;;;;;;;7.83;4.43;;;;;;;;;;775335;180;918018;-64
2024/04/10 01:59:14;;;;;;;13.18;5.90;;;;;;;;;;772722;180;912256;-64
2024/04/10 02:01:40;;;;;;;9.00;5.53;;;;;;;;;;776110;180;920869;-64
2024/04/10 02:04:06;;;;;;;11.43;5.80;;;;;;;;;;773881;180;898409;-65
2024/04/10 02:06:32;;;;;;;7.78;4.37;;;;;;;;;;774660;180;710304;-64
2024/04/10 02:08:57;;;;;;;8.20;4.93;;;;;;;;;;776400;180;850938;-64
2024/04/10 02:11:26;;;;;;;10.73;4.70;;;;;;;;;;773196;180;797162;-63
2024/04/10 02:20:30;;;;;;;13.77;7.37;;;;;;;;;;788837;170;808898;-62
2024/04/10 02:22:56;;;;;;;12.33;6.20;;;;;;;;;;768805;180;754715;-63
2024/04/10 02:25:22;;;;;;;12.33;6.80;;;;;;;;;;772245;179;816461;-62
2024/04/10 02:27:48;;;;;;;9.57;6.27;;;;;;;;;;778453;180;937391;-64
2024/04/10 02:30:13;;;;;;;8.17;6.63;;;;;;;;;;775609;177;796199;-64
2024/04/10 02:32:39;;;;;;;14.50;5.93;;;;;;;;;;776600;177;819810;-64
2024/04/10 02:35:05;;;;;;;8.70;6.60;;;;;;;;;;778873;177;812831;-64
2024/04/10 02:37:31;;;;;;;9.00;6.00;;;;;;;;;;776348;177;847263;-62
2024/04/10 02:39:58;;;;;;;8.97;5.90;;;;;;;;;;769059;179;891378;-63
2024/04/10 02:42:23;;;;;;;9.30;6.97;;;;;;;;;;776571;180;940175;-62
2024/04/10 02:44:51;;;;;;;9.87;5.67;;;;;;;;;;775043;177;751040;-64
2024/04/10 02:47:14;;;;;;;12.30;7.33;;;;;;;;;;772619;178;813640;-63
2024/04/10 02:49:40;;;;;;;10.33;5.30;;;;;;;;;;774582;178;920701;-65
2024/04/10 02:52:06;;;;;;;12.67;6.47;;;;;;;;;;778754;178;884472;-63
2024/04/10 02:54:32;;;;;;;11.80;6.87;;;;;;;;;;771829;177;918095;-64
2024/04/10 02:56:58;;;;;;;8.37;5.70;;;;;;;;;;772697;177;917300;-63
2024/04/10 02:59:23;;;;;;;6.53;5.20;;;;;;;;;;779392;180;619116;-63
2024/04/10 03:01:51;;;;;;;7.78;5.70;;;;;;;;;;775754;178;748008;-65
2024/04/10 03:04:15;;;;;;;11.80;5.90;;;;;;;;;;770132;180;867651;-64
2024/04/10 03:06:41;;;;;;;9.40;5.50;;;;;;;;;;776338;180;807483;-63
2024/04/10 03:09:07;;;;;;;11.80;6.60;;;;;;;;;;773029;180;918850;-63
2024/04/10 03:11:33;;;;;;;11.70;7.07;;;;;;;;;;776220;177;819860;-64
2024/04/10 03:13:59;;;;;;;11.43;6.87;;;;;;;;;;771028;180;925022;-63
2024/04/10 03:16:24;;;;;;;15.07;7.93;;;;;;;;;;770555;179;913858;-63
2024/04/10 03:18:50;;;;;;;16.00;6.43;;;;;;;;;;773640;177;893237;-63
2024/04/10 03:21:16;;;;;;;9.83;6.37;;;;;;;;;;773194;180;917785;-65
2024/04/10 03:23:42;;;;;;;13.73;6.28;;;;;;;;;;777925;180;918473;-63
2024/04/10 03:26:09;;;;;;;10.40;5.50;;;;;;;;;;769916;179;1109837;-63
2024/04/10 03:28:34;;;;;;;9.83;6.00;;;;;;;;;;772764;178;920784;-63
2024/04/10 03:31:01;;;;;;;9.03;5.53;;;;;;;;;;779385;178;914468;-64
2024/04/10 03:33:26;;;;;;;27.50;19.40;;;;;;;;;;775118;179;916280;-63
2024/04/10 03:35:52;;;;;;;13.45;6.35;;;;;;;;;;773879;179;817650;-63
2024/04/10 03:38:18;;;;;;;18.13;9.30;;;;;;;;;;780277;177;720169;-63
2024/04/10 03:40:44;;;;;;;13.23;7.13;;;;;;;;;;772307;179;803867;-64
2024/04/10 03:43:10;;;;;;;10.60;6.53;;;;;;;;;;772027;177;829463;-64
2024/04/10 03:45:36;;;;;;;5.25;3.55;;;;;;;;;;777648;179;817382;-65
2024/04/10 03:48:02;;;;;;;7.53;3.60;;;;;;;;;;764346;181;714209;-63
2024/04/10 03:50:28;;;;;;;4.57;3.10;;;;;;;;;;772011;178;906386;-64
2024/04/10 03:52:53;;;;;;;6.80;2.90;;;;;;;;;;769410;178;895363;-64
2024/04/10 03:55:19;;;;;;;8.43;2.80;;;;;;;;;;773932;180;851296;-63
2024/04/10 03:57:45;;;;;;;7.30;2.03;;;;;;;;;;776181;177;787807;-63
2024/04/10 04:00:11;;;;;;;4.70;1.90;;;;;;;;;;773552;177;854886;-62
2024/04/10 04:02:37;;;;;;;3.23;1.87;;;;;;;;;;773520;180;743033;-62
2024/04/10 04:05:03;;;;;;;6.00;2.03;;;;;;;;;;771546;178;807858;-64
2024/04/10 04:07:28;;;;;;;3.70;1.83;;;;;;;;;;773843;177;759330;-64
2024/04/10 04:09:54;;;;;;;4.77;2.17;;;;;;;;;;776399;180;612764;-64
2024/04/10 04:12:20;;;;;;;2.60;1.70;;;;;;;;;;775114;177;709462;-65
2024/04/10 04:14:47;;;;;;;4.80;1.70;;;;;;;;;;777871;177;628744;-65
2024/04/10 04:17:12;;;;;;;4.10;1.77;;;;;;;;;;777683;179;620615;-65
2024/04/10 04:19:38;;;;;;;7.00;2.20;;;;;;;;;;773414;180;815403;-65
2024/04/10 04:22:04;;;;;;;2.60;1.50;;;;;;;;;;774774;178;635570;-65
2024/04/10 04:24:29;;;;;;;4.53;1.63;;;;;;;;;;772403;176;922156;-65
2024/04/10 04:26:56;;;;;;;4.47;1.53;;;;;;;;;;780603;177;628222;-65
2024/04/10 04:29:21;;;;;;;6.40;1.90;;;;;;;;;;773185;178;817709;-65
2024/04/10 04:31:50;;;;;;;5.00;1.37;;;;;;;;;;773281;180;916734;-65
2024/04/10 04:34:16;;;;;;;11.73;4.83;;;;;;;;;;778075;180;614332;-64
2024/04/10 04:36:39;;;;;;;11.90;3.70;;;;;;;;;;769803;178;632780;-64
2024/04/10 04:39:07;;;;;;;11.40;2.20;;;;;;;;;;771086;178;918896;-64
2024/04/10 04:41:30;;;;;;;7.93;1.70;;;;;;;;;;780353;179;714890;-64
2024/04/10 04:43:56;;;;;;;7.27;1.40;;;;;;;;;;774613;177;810830;-65
2024/04/10 04:46:24;;;;;;;4.30;1.70;;;;;;;;;;773789;177;789657;-65
2024/04/10 04:48:48;;;;;;;2.80;1.57;;;;;;;;;;773458;177;722665;-66
2024/04/10 04:51:14;;;;;;;3.63;1.67;;;;;;;;;;774397;178;646332;-65
2024/04/10 04:53:40;;;;;;;2.80;1.50;;;;;;;;;;776005;180;637132;-67
2024/04/10 04:56:06;;;;;;;5.37;1.60;;;;;;;;;;776221;179;678754;-65
2024/04/10 04:58:31;;;;;;;6.33;1.37;;;;;;;;;;775559;180;913504;-66
2024/04/10 05:00:57;;;;;;;2.53;1.30;;;;;;;;;;769060;178;1123708;-66
2024/04/10 05:05:55;;;;;;;5.33;1.70;;;;;;;;;;771928;180;912360;-64
2024/04/10 05:08:20;;;;;;;2.70;1.67;;;;;;;;;;774685;179;863398;-66
2024/04/10 05:10:46;;;;;;;3.17;1.50;;;;;;;;;;773742;178;808909;-64
2024/04/10 05:13:12;;;;;;;4.07;1.47;;;;;;;;;;772605;177;841247;-65
2024/04/10 05:15:38;;;;;;;3.93;1.60;;;;;;;;;;777828;178;802442;-65
2024/04/10 05:18:04;;;;;;;7.33;1.17;;;;;;;;;;772907;177;710315;-65
2024/04/10 05:20:30;;;;;;;3.90;1.62;;;;;;;;;;773047;177;895775;-64
2024/04/10 05:22:56;;;;;;;4.73;1.40;;;;;;;;;;775640;181;934550;-65
2024/04/10 05:25:22;;;;;;;2.40;1.17;;;;;;;;;;776167;178;751772;-65
2024/04/10 05:27:49;;;;;;;5.18;1.40;;;;;;;;;;774286;180;696448;-64
2024/04/10 05:30:14;;;;;;;5.20;1.40;;;;;;;;;;776738;180;638262;-66
2024/04/10 05:32:40;;;;;;;8.40;2.00;;;;;;;;;;774326;180;770366;-67
2024/04/10 05:35:06;;;;;;;3.00;1.53;;;;;;;;;;775284;180;806799;-68
2024/04/10 05:37:33;;;;;;;9.35;1.83;;;;;;;;;;776779;178;882579;-68
2024/04/10 05:40:00;;;;;;;3.23;1.67;;;;;;;;;;763753;181;805072;-67
2024/04/10 05:42:26;;;;;;;4.00;1.73;;;;;;;;;;776588;177;699045;-66
2024/04/10 05:44:52;;;;;;;2.83;1.23;;;;;;;;;;772667;177;806033;-68
2024/04/10 05:47:18;;;;;;;6.40;1.70;;;;;;;;;;778522;180;1117931;-68
2024/04/10 05:49:44;;;;;;;3.70;1.60;;;;;;;;;;766667;180;1018252;-66
2024/04/10 05:52:10;;;;;;;3.05;1.67;;;;;;;;;;773487;177;714360;-67
2024/04/10 05:54:35;;;;;;;3.73;2.07;;;;;;;;;;777496;176;1016016;-67
2024/04/10 05:57:01;;;;;;;4.57;1.60;;;;;;;;;;774940;178;805518;-66
2024/04/10 05:59:27;;;;;;;13.50;6.20;;;;;;;;;;772743;177;716512;-68
2024/04/10 06:01:53;;;;;;;19.17;8.70;;;;;;;;;;774258;177;834167;-66
2024/04/10 06:04:19;;;;;;;15.57;5.30;;;;;;;;;;756016;183;918521;-65
2024/04/10 06:06:45;;;;;;;26.95;10.55;;;;;;;;;;758059;183;883815;-65
2024/04/10 06:09:11;;;;;;;23.13;5.60;;;;;;;;;;773163;177;890749;-66
2024/04/10 06:11:36;;;;;;;14.40;5.70;;;;;;;;;;775049;181;918372;-64
2024/04/10 06:14:02;;;;;;;50.13;16.93;;;;;;;;;;772921;180;741848;-64
2024/04/10 06:16:28;;;;;;;15.73;6.13;;;;;;;;;;773283;179;809031;-68
2024/04/10 06:18:54;;;;;;;88.43;38.40;;;;;;;;;;779605;177;817231;-68
2024/04/10 06:21:20;;;;;;;19.03;10.67;;;;;;;;;;771096;177;819605;-64
2024/04/10 06:23:46;;;;;;;12.70;6.77;;;;;;;;;;766785;179;940480;-65
2024/04/10 06:26:12;;;;;;;13.73;6.50;;;;;;;;;;777351;178;919688;-66
2024/04/10 06:28:38;;;;;;;38.50;17.17;;;;;;;;;;776065;179;914828;-66
2024/04/10 06:31:03;;;;;;;37.47;15.88;;;;;;;;;;763762;179;930346;-65
2024/04/10 06:33:29;;;;;;;21.43;8.03;;;;;;;;;;778029;179;819707;-64
2024/04/10 06:35:58;;;;;;;18.83;7.50;;;;;;;;;;773925;178;919091;-65
2024/04/10 06:38:24;;;;;;;17.57;7.43;;;;;;;;;;766971;180;912552;-64
2024/04/10 06:40:53;;;;;;;14.03;6.67;;;;;;;;;;768168;180;824497;-66
2024/04/10 06:43:19;;;;;;;18.27;9.33;;;;;;;;;;778594;179;707733;-67
2024/04/10 06:45:45;;;;;;;8.00;4.17;;;;;;;;;;773280;177;856810;-65
2024/04/10 06:48:11;;;;;;;6.50;3.63;;;;;;;;;;769996;177;816922;-65
2024/04/10 06:50:37;;;;;;;8.00;4.40;;;;;;;;;;773935;180;919083;-66
2024/04/10 06:53:05;;;;;;;9.07;4.27;;;;;;;;;;772292;180;837081;-65
2024/04/10 06:55:28;;;;;;;15.43;6.00;;;;;;;;;;770044;180;813591;-66
2024/04/10 06:57:54;;;;;;;11.57;4.12;;;;;;;;;;769244;179;882629;-64
2024/04/10 07:00:21;;;;;;;6.40;4.17;;;;;;;;;;766803;180;781492;-64
2024/04/10 07:02:46;;;;;;;12.53;4.20;;;;;;;;;;773251;177;653793;-65
2024/04/10 07:05:12;;;;;;;10.50;4.80;;;;;;;;;;774157;178;931313;-66
2024/04/10 07:07:38;;;;;;;7.00;3.43;;;;;;;;;;777628;180;878620;-64
2024/04/10 07:10:05;;;;;;;15.33;9.97;;;;;;;;;;775337;178;918112;-64
2024/04/10 07:12:30;;;;;;;9.53;4.60;;;;;;;;;;774125;180;914705;-64
2024/04/10 07:14:56;;;;;;;5.10;3.77;;;;;;;;;;762585;180;823447;-64
2024/04/10 07:17:22;;;;;;;6.90;3.37;;;;;;;;;;772990;178;789500;-65
2024/04/10 07:19:48;;;;;;;6.95;2.70;;;;;;;;;;773893;176;903260;-65
2024/04/10 07:22:13;;;;;;;4.97;2.80;;;;;;;;;;779996;180;793294;-64
2024/04/10 07:24:39;;;;;;;9.50;2.83;;;;;;;;;;764843;180;921255;-65
2024/04/10 07:27:05;;;;;;;11.15;3.97;;;;;;;;;;773179;179;815577;-64
2024/04/10 07:29:31;;;;;;;5.10;3.37;;;;;;;;;;768583;178;912418;-67
2024/04/10 07:31:57;;;;;;;7.10;3.37;;;;;;;;;;773809;180;813143;-65
2024/04/10 07:34:23;;;;;;;7.83;2.80;;;;;;;;;;764654;180;915107;-64
2024/04/10 07:36:49;;;;;;;6.37;3.00;;;;;;;;;;773283;177;917719;-66
2024/04/10 07:39:16;;;;;;;7.43;3.37;;;;;;;;;;779093;178;919977;-65
2024/04/10 07:41:40;;;;;;;11.03;4.40;;;;;;;;;;769627;178;924387;-65
2024/04/10 07:44:06;;;;;;;94.90;53.10;;;;;;;;;;769163;180;921502;-65
2024/04/10 07:46:32;;;;;;;10.07;6.18;;;;;;;;;;778787;180;713931;-65
2024/04/10 07:48:58;;;;;;;6.50;3.90;;;;;;;;;;771854;178;911275;-65
2024/04/10 07:51:24;;;;;;;6.03;3.47;;;;;;;;;;771972;180;811000;-65
2024/04/10 07:53:50;;;;;;;5.82;3.47;;;;;;;;;;777269;180;902182;-65
2024/04/10 07:56:15;;;;;;;6.90;3.50;;;;;;;;;;767249;179;708096;-64
2024/04/10 07:58:41;;;;;;;3.62;2.33;;;;;;;;;;769330;179;638248;-64
2024/04/10 08:01:07;;;;;;;7.23;3.37;;;;;;;;;;770920;177;811754;-65
2024/04/10 08:03:33;;;;;;;3.70;2.53;;;;;;;;;;771975;178;817445;-64
2024/04/10 08:06:00;;;;;;;9.47;3.03;;;;;;;;;;769212;178;848675;-65
2024/04/10 08:08:26;;;;;;;5.70;2.10;;;;;;;;;;774900;177;820204;-65
2024/04/10 08:10:58;;;;;;;3.80;3.00;;;;;;;;;;777852;177;935543;-65
2024/04/10 08:13:23;;;;;;;5.60;2.83;;;;;;;;;;765548;180;921862;-64
2024/04/10 08:15:58;;;;;;;9.60;2.92;;;;;;;;;;772532;180;760164;-65
2024/04/10 08:18:22;;;;;;;8.00;3.30;;;;;;;;;;776723;177;785665;-65
2024/04/10 08:20:48;;;;;;;6.80;3.50;;;;;;;;;;777773;177;904789;-63
2024/04/10 08:23:14;;;;;;;5.80;2.63;;;;;;;;;;773799;180;799661;-64
2024/04/10 08:25:40;;;;;;;4.00;2.17;;;;;;;;;;772019;179;798449;-65
2024/04/10 08:28:06;;;;;;;6.47;3.07;;;;;;;;;;776290;177;817961;-63
2024/04/10 08:30:32;;;;;;;4.00;2.60;;;;;;;;;;775267;177;810773;-64
2024/04/10 08:32:58;;;;;;;5.30;2.73;;;;;;;;;;772620;178;850871;-64
2024/04/10 08:35:23;;;;;;;5.07;2.40;;;;;;;;;;774013;177;835822;-66
2024/04/10 08:37:49;;;;;;;7.63;2.50;;;;;;;;;;775162;177;842872;-64
2024/04/10 08:40:15;;;;;;;6.33;2.73;;;;;;;;;;769557;179;818337;-64
2024/04/10 08:42:41;;;;;;;5.63;2.80;;;;;;;;;;774398;180;865386;-65
2024/04/10 08:45:07;;;;;;;4.60;2.40;;;;;;;;;;780053;178;719409;-64
2024/04/10 08:47:33;;;;;;;8.60;2.90;;;;;;;;;;772270;180;713767;-66
2024/04/10 08:49:58;;;;;;;3.45;1.85;;;;;;;;;;771485;178;815439;-65
2024/04/10 08:52:25;;;;;;;3.57;1.63;;;;;;;;;;775242;180;823850;-65
2024/04/10 08:54:50;;;;;;;6.70;2.60;;;;;;;;;;763777;180;922022;-63
2024/04/10 08:57:16;;;;;;;111.80;48.53;;;;;;;;;;769118;178;881497;-63
2024/04/10 08:59:42;;;;;;;9.10;5.80;;;;;;;;;;771346;180;624825;-67
2024/04/10 09:02:08;;;;;;;7.03;2.57;;;;;;;;;;768063;180;927713;-68
2024/04/10 09:04:34;;;;;;;6.87;2.37;;;;;;;;;;770790;178;720756;-66
2024/04/10 09:07:00;;;;;;;5.47;2.90;;;;;;;;;;774716;179;911564;-68
2024/04/10 09:09:26;;;;;;;6.10;3.80;;;;;;;;;;771277;177;713167;-68
2024/04/10 09:11:52;;;;;;;6.40;2.70;;;;;;;;;;767330;180;912970;-66
2024/04/10 09:14:18;;;;;;;12.50;3.90;;;;;;;;;;767304;179;923249;-67
2024/04/10 09:16:44;;;;;;;7.57;3.07;;;;;;;;;;776791;180;918756;-67
2024/04/10 09:19:10;;;;;;;3.87;2.33;;;;;;;;;;772490;178;814085;-67
2024/04/10 09:21:36;;;;;;;7.00;3.23;;;;;;;;;;771894;180;818628;-68
2024/04/10 09:24:03;;;;;;;6.10;2.87;;;;;;;;;;777771;178;717850;-68
2024/04/10 09:26:28;;;;;;;9.67;4.27;;;;;;;;;;774686;178;691447;-67
2024/04/10 09:28:59;;;;;;;8.73;3.60;;;;;;;;;;775659;178;796410;-68
2024/04/10 09:31:25;;;;;;;3.90;2.70;;;;;;;;;;777207;177;738436;-68
2024/04/10 09:33:51;;;;;;;6.80;2.60;;;;;;;;;;779835;178;815717;-67
2024/04/10 09:36:17;;;;;;;7.53;3.33;;;;;;;;;;773170;177;904705;-66
2024/04/10 09:38:43;;;;;;;18.77;5.60;;;;;;;;;;775754;177;759278;-67
2024/04/10 09:41:09;;;;;;;24.10;8.77;;;;;;;;;;775173;178;814528;-66
2024/04/10 09:43:35;;;;;;;11.17;5.47;;;;;;;;;;768155;180;855092;-67
2024/04/10 09:46:02;;;;;;;28.90;17.60;;;;;;;;;;772567;176;890250;-67
2024/04/10 09:48:31;;;;;;;7.93;5.20;;;;;;;;;;778108;177;766737;-64
2024/04/10 09:50:55;;;;;;;6.23;3.13;;;;;;;;;;753128;183;925076;-63
2024/04/10 09:53:21;;;;;;;6.50;3.03;;;;;;;;;;769520;178;806467;-62
2024/04/10 09:55:47;;;;;;;4.60;2.00;;;;;;;;;;775399;180;942303;-64
2024/04/10 09:58:13;;;;;;;22.57;10.17;;;;;;;;;;776322;177;921861;-64
2024/04/10 10:00:38;;;;;;;8.30;3.13;;;;;;;;;;771880;177;820644;-63
2024/04/10 10:03:06;;;;;;;5.03;2.50;;;;;;;;;;771722;177;905678;-65
2024/04/10 10:05:32;;;;;;;14.10;2.67;;;;;;;;;;772647;181;912415;-64
2024/04/10 10:08:17;;;;;;;4.63;2.43;;;;;;;;;;772672;178;917381;-63
2024/04/10 10:10:44;;;;;;;3.90;2.43;;;;;;;;;;772605;178;972867;-64
2024/04/10 10:13:10;;;;;;;8.85;2.55;;;;;;;;;;770407;178;884498;-63
2024/04/10 10:15:36;;;;;;;11.27;4.20;;;;;;;;;;778193;180;814243;-64
2024/04/10 10:18:02;;;;;;;5.20;2.33;;;;;;;;;;767045;180;919000;-65
2024/04/10 10:20:30;;;;;;;3.25;2.00;;;;;;;;;;768570;180;918967;-66
2024/04/10 10:22:55;;;;;;;3.33;2.13;;;;;;;;;;769720;180;1150212;-64
2024/04/10 10:25:21;;;;;;;9.43;5.10;;;;;;;;;;777512;180;816176;-64
2024/04/10 10:27:47;;;;;;;18.63;8.90;;;;;;;;;;772662;179;920203;-64
2024/04/10 10:30:13;;;;;;;7.40;3.30;;;;;;;;;;771629;179;753093;-63
2024/04/10 10:32:39;;;;;;;7.40;4.23;;;;;;;;;;777024;178;715567;-64
2024/04/10 10:35:09;;;;;;;14.00;6.40;;;;;;;;;;770661;178;892348;-64
2024/04/10 10:37:35;;;;;;;10.43;4.00;;;;;;;;;;772046;180;753296;-63
2024/04/10 10:40:01;;;;;;;32.27;9.33;;;;;;;;;;773769;179;910736;-64
2024/04/10 10:42:26;;;;;;;5.53;2.30;;;;;;;;;;772308;177;816065;-63
2024/04/10 10:44:53;;;;;;;8.35;4.68;;;;;;;;;;777606;177;744075;-63
2024/04/10 10:47:18;;;;;;;6.20;2.77;;;;;;;;;;779082;179;713033;-64
2024/04/10 10:49:44;;;;;;;7.93;3.20;;;;;;;;;;780246;180;791296;-64
2024/04/10 10:52:10;;;;;;;4.37;2.80;;;;;;;;;;774514;179;716629;-65
2024/04/10 10:54:35;;;;;;;11.90;4.83;;;;;;;;;;771772;177;907126;-65
2024/04/10 10:57:02;;;;;;;4.90;3.27;;;;;;;;;;766518;179;893042;-64
2024/04/10 10:59:27;;;;;;;4.10;2.10;;;;;;;;;;773832;180;737595;-66
2024/04/10 11:01:53;;;;;;;14.23;3.73;;;;;;;;;;770895;179;805866;-64
2024/04/10 11:04:19;;;;;;;5.53;2.10;;;;;;;;;;778508;179;806680;-65
2024/04/10 11:06:45;;;;;;;4.50;1.90;;;;;;;;;;772992;178;820064;-63
2024/04/10 11:09:11;;;;;;;2.60;1.30;;;;;;;;;;771764;180;882493;-63
2024/04/10 11:11:38;;;;;;;4.50;1.80;;;;;;;;;;769866;180;814735;-64
2024/04/10 11:14:03;;;;;;;3.93;1.73;;;;;;;;;;774083;177;817099;-63
2024/04/10 11:16:31;;;;;;;2.80;1.33;;;;;;;;;;772328;178;911251;-64
2024/04/10 11:18:55;;;;;;;3.03;1.60;;;;;;;;;;770454;180;867199;-65
2024/04/10 11:21:21;;;;;;;4.27;1.67;;;;;;;;;;778856;180;718158;-67
2024/04/10 11:23:47;;;;;;;5.00;1.90;;;;;;;;;;767642;178;915242;-67
2024/04/10 11:26:13;;;;;;;2.80;1.40;;;;;;;;;;771930;180;821795;-63
2024/04/10 11:28:38;;;;;;;2.43;1.30;;;;;;;;;;772935;178;886078;-64
2024/04/10 11:31:05;;;;;;;2.83;1.47;;;;;;;;;;771833;178;927081;-64
2024/04/10 11:33:30;;;;;;;13.63;4.60;;;;;;;;;;772725;178;805538;-63
2024/04/10 11:35:59;;;;;;;3.23;1.30;;;;;;;;;;775512;177;815716;-64
2024/04/10 11:38:22;;;;;;;5.97;2.00;;;;;;;;;;775302;180;826025;-64
2024/04/10 11:40:48;;;;;;;3.23;1.73;;;;;;;;;;767753;177;925553;-64
2024/04/10 11:43:14;;;;;;;2.57;1.10;;;;;;;;;;772366;178;814310;-64
2024/04/10 11:45:39;;;;;;;6.33;1.63;;;;;;;;;;778388;180;915902;-64
2024/04/10 11:48:05;;;;;;;2.97;2.03;;;;;;;;;;776978;178;629275;-63
2024/04/10 11:50:31;;;;;;;6.60;1.90;;;;;;;;;;776925;180;625171;-62
2024/04/10 11:52:57;;;;;;;4.73;1.53;;;;;;;;;;780882;179;816985;-63
2024/04/10 11:55:23;;;;;;;2.75;1.42;;;;;;;;;;775295;179;868335;-63
2024/04/10 11:57:49;;;;;;;4.07;1.43;;;;;;;;;;773313;179;770325;-62
2024/04/10 12:00:15;;;;;;;4.47;1.77;;;;;;;;;;779518;180;759479;-64
2024/04/10 12:02:42;;;;;;;5.40;1.50;;;;;;;;;;775382;180;791989;-63
2024/04/10 12:05:07;;;;;;;3.97;2.30;;;;;;;;;;772604;177;806713;-64
2024/04/10 12:07:33;;;;;;;54.37;26.43;;;;;;;;;;778983;178;801802;-63
2024/04/10 12:09:59;;;;;;;82.80;39.90;;;;;;;;;;769722;178;849469;-64
2024/04/10 12:12:25;;;;;;;4.50;3.80;;;;;;;;;;768018;179;811961;-63
2024/04/10 12:14:50;;;;;;;6.00;2.13;;;;;;;;;;773993;179;914455;-63
2024/04/10 12:17:16;;;;;;;3.07;1.43;;;;;;;;;;778725;177;715670;-63
2024/04/10 12:19:42;;;;;;;4.37;1.73;;;;;;;;;;768221;180;851786;-63
2024/04/10 12:22:08;;;;;;;5.50;1.40;;;;;;;;;;770167;179;952716;-62
2024/04/10 12:24:36;;;;;;;5.93;2.10;;;;;;;;;;777139;178;812003;-63
2024/04/10 12:27:00;;;;;;;8.43;2.57;;;;;;;;;;770037;178;851757;-64
2024/04/10 12:29:26;;;;;;;5.20;1.83;;;;;;;;;;770442;177;917848;-64
2024/04/10 12:31:51;;;;;;;7.63;2.20;;;;;;;;;;777317;180;726291;-63
2024/04/10 12:34:17;;;;;;;7.28;3.70;;;;;;;;;;771929;178;913989;-63
2024/04/10 12:39:16;;;;;;;5.57;2.00;;;;;;;;;;774293;178;916511;-64
2024/04/10 12:41:41;;;;;;;12.70;2.93;;;;;;;;;;777347;178;915676;-63
2024/04/10 12:44:13;;;;;;;3.55;1.62;;;;;;;;;;772596;177;918771;-64
2024/04/10 12:46:39;;;;;;;2.70;1.35;;;;;;;;;;770244;177;1125171;-63
2024/04/10 12:49:05;;;;;;;3.05;1.83;;;;;;;;;;773984;178;750422;-63
2024/04/10 12:51:31;;;;;;;3.90;1.50;;;;;;;;;;773125;180;912551;-63
2024/04/10 12:53:56;;;;;;;3.17;1.40;;;;;;;;;;768329;178;856832;-63
2024/04/10 12:56:23;;;;;;;2.30;1.20;;;;;;;;;;773174;177;812431;-65
2024/04/10 12:58:48;;;;;;;2.63;1.20;;;;;;;;;;779427;177;664581;-64
2024/04/10 13:01:14;;;;;;;2.40;1.10;;;;;;;;;;773478;180;780003;-63
2024/04/10 13:03:40;;;;;;;4.93;1.40;;;;;;;;;;774470;177;712093;-63
2024/04/10 13:06:06;;;;;;;3.93;1.93;;;;;;;;;;780179;178;716407;-64
2024/04/10 13:08:33;;;;;;;5.60;1.30;;;;;;;;;;774144;179;843484;-66
2024/04/10 13:11:03;;;;;;;5.05;1.80;;;;;;;;;;772562;180;821103;-62
2024/04/10 13:13:29;;;;;;;2.47;1.20;;;;;;;;;;773709;180;883013;-64
2024/04/10 13:16:00;;;;;;;8.97;1.40;;;;;;;;;;766454;181;628342;-64
2024/04/10 13:18:25;;;;;;;2.77;1.37;;;;;;;;;;777348;178;859490;-63
2024/04/10 13:20:53;;;;;;;3.85;1.55;;;;;;;;;;773881;177;899802;-65
2024/04/10 13:23:20;;;;;;;2.77;1.30;;;;;;;;;;778135;177;724865;-64
2024/04/10 13:25:45;;;;;;;21.07;8.63;;;;;;;;;;764074;180;923803;-64
2024/04/10 13:28:11;;;;;;;4.30;1.90;;;;;;;;;;770032;180;915206;-64
2024/04/10 13:30:37;;;;;;;3.73;1.50;;;;;;;;;;781892;179;619654;-65
2024/04/10 13:35:29;;;;;;;2.60;1.40;;;;;;;;;;785492;170;925119;-64
2024/04/10 13:37:55;;;;;;;4.10;1.67;;;;;;;;;;765709;177;938121;-69
2024/04/10 13:40:21;;;;;;;2.70;1.48;;;;;;;;;;776852;179;1315206;-68
2024/04/10 13:42:47;;;;;;;2.70;1.53;;;;;;;;;;776278;176;900643;-67
2024/04/10 13:45:16;;;;;;;4.43;2.80;;;;;;;;;;772277;177;913161;-67
2024/04/10 13:47:42;;;;;;;4.23;1.87;;;;;;;;;;782229;179;907690;-67
2024/04/10 13:50:07;;;;;;;3.23;1.60;;;;;;;;;;771986;178;952549;-68
2024/04/10 13:52:33;;;;;;;4.28;1.60;;;;;;;;;;771843;177;1019570;-68
2024/04/10 13:54:59;;;;;;;3.80;1.43;;;;;;;;;;780537;179;816391;-67
2024/04/10 13:57:24;;;;;;;4.17;2.00;;;;;;;;;;773707;179;906323;-67
2024/04/10 13:59:50;;;;;;;7.83;1.90;;;;;;;;;;775268;180;814151;-67
2024/04/10 14:02:16;;;;;;;4.47;1.80;;;;;;;;;;773022;177;929802;-69
2024/04/10 14:04:42;;;;;;;9.10;3.50;;;;;;;;;;772604;179;918806;-69
2024/04/10 14:07:08;;;;;;;7.80;4.27;;;;;;;;;;771877;179;919345;-68
2024/04/10 14:09:34;;;;;;;12.87;10.17;;;;;;;;;;774022;178;916471;-69
2024/04/10 14:12:00;;;;;;;5.17;3.60;;;;;;;;;;778537;177;710066;-68
2024/04/10 14:14:26;;;;;;;4.93;2.67;;;;;;;;;;774984;179;636434;-68
2024/04/10 14:16:53;;;;;;;5.13;3.20;;;;;;;;;;776276;179;749036;-68
2024/04/10 14:19:17;;;;;;;3.47;1.97;;;;;;;;;;778032;179;702113;-68
2024/04/10 14:21:43;;;;;;;3.60;2.50;;;;;;;;;;776203;179;644873;-68
2024/04/10 14:24:09;;;;;;;4.80;2.00;;;;;;;;;;779329;179;798521;-68
2024/04/10 14:26:35;;;;;;;2.80;1.60;;;;;;;;;;778021;178;809384;-68
2024/04/10 14:29:01;;;;;;;5.22;2.03;;;;;;;;;;772563;178;784070;-69
2024/04/10 14:31:26;;;;;;;6.40;2.80;;;;;;;;;;774335;179;811034;-69